sensor_id;sensor_type;location;lat;lon;timestamp;temperature;humidity
60234;DHT22;49514;43.538;-5.708;2023-04-03T00:01:42;14.00;92.00
60234;DHT22;49514;43.538;-5.708;2023-04-03T00:04:08;14.00;92.10
60234;DHT22;49514;43.538;-5.708;2023-04-03T00:06:35;14.00;92.60
60234;DHT22;49514;43.538;-5.708;2023-04-03T00:09:02;13.90;92.40
60234;DHT22;49514;43.538;-5.708;2023-04-03T00:11:29;13.90;92.50
60234;DHT22;49514;43.538;-5.708;2023-04-03T00:13:56;13.80;92.60
60234;DHT22;49514;43.538;-5.708;2023-04-03T00:16:22;13.80;92.80
60234;DHT22;49514;43.538;-5.708;2023-04-03T00:18:49;13.70;92.70
60234;DHT22;49514;43.538;-5.708;2023-04-03T00:21:16;13.70;92.80
60234;DHT22;49514;43.538;-5.708;2023-04-03T00:23:42;13.60;92.60
60234;DHT22;49514;43.538;-5.708;2023-04-03T00:26:09;13.60;93.00
60234;DHT22;49514;43.538;-5.708;2023-04-03T00:28:37;13.50;92.90
60234;DHT22;49514;43.538;-5.708;2023-04-03T00:31:04;13.50;93.70
60234;DHT22;49514;43.538;-5.708;2023-04-03T00:33:30;13.40;93.60
60234;DHT22;49514;43.538;-5.708;2023-04-03T00:35:57;13.30;93.50
60234;DHT22;49514;43.538;-5.708;2023-04-03T00:38:24;13.30;93.60
60234;DHT22;49514;43.538;-5.708;2023-04-03T00:40:51;13.30;93.80
60234;DHT22;49514;43.538;-5.708;2023-04-03T00:43:21;13.20;93.90
60234;DHT22;49514;43.538;-5.708;2023-04-03T00:45:58;13.20;93.90
60234;DHT22;49514;43.538;-5.708;2023-04-03T00:48:34;13.10;94.50
60234;DHT22;49514;43.538;-5.708;2023-04-03T00:51:04;13.10;94.80
60234;DHT22;49514;43.538;-5.708;2023-04-03T00:53:52;13.00;95.00
60234;DHT22;49514;43.538;-5.708;2023-04-03T00:56:23;13.00;95.40
60234;DHT22;49514;43.538;-5.708;2023-04-03T00:58:52;12.90;94.90
60234;DHT22;49514;43.538;-5.708;2023-04-03T01:01:24;12.90;95.20
60234;DHT22;49514;43.538;-5.708;2023-04-03T01:03:51;12.80;96.50
60234;DHT22;49514;43.538;-5.708;2023-04-03T01:06:26;12.90;96.10
60234;DHT22;49514;43.538;-5.708;2023-04-03T01:08:55;12.90;95.80
60234;DHT22;49514;43.538;-5.708;2023-04-03T01:11:22;12.90;96.00
60234;DHT22;49514;43.538;-5.708;2023-04-03T01:13:49;12.90;96.50
60234;DHT22;49514;43.538;-5.708;2023-04-03T01:16:16;12.90;96.10
60234;DHT22;49514;43.538;-5.708;2023-04-03T01:18:43;12.90;96.50
60234;DHT22;49514;43.538;-5.708;2023-04-03T01:26:08;12.90;96.70
60234;DHT22;49514;43.538;-5.708;2023-04-03T01:28:36;12.80;97.10
60234;DHT22;49514;43.538;-5.708;2023-04-03T01:33:42;12.80;98.00
60234;DHT22;49514;43.538;-5.708;2023-04-03T01:36:15;12.70;98.20
60234;DHT22;49514;43.538;-5.708;2023-04-03T01:38:42;12.70;98.10
60234;DHT22;49514;43.538;-5.708;2023-04-03T01:41:09;12.60;98.20
60234;DHT22;49514;43.538;-5.708;2023-04-03T01:43:36;12.60;98.50
60234;DHT22;49514;43.538;-5.708;2023-04-03T01:46:03;12.50;98.70
60234;DHT22;49514;43.538;-5.708;2023-04-03T01:48:30;12.40;99.80
60234;DHT22;49514;43.538;-5.708;2023-04-03T01:50:56;12.30;99.90
60234;DHT22;49514;43.538;-5.708;2023-04-03T01:53:23;12.20;99.90
60234;DHT22;49514;43.538;-5.708;2023-04-03T01:55:50;12.10;99.90
60234;DHT22;49514;43.538;-5.708;2023-04-03T01:58:16;12.10;99.90
60234;DHT22;49514;43.538;-5.708;2023-04-03T02:00:43;12.00;99.90
60234;DHT22;49514;43.538;-5.708;2023-04-03T02:03:10;12.00;99.90
60234;DHT22;49514;43.538;-5.708;2023-04-03T02:05:37;12.00;99.90
60234;DHT22;49514;43.538;-5.708;2023-04-03T02:08:05;12.00;99.90
60234;DHT22;49514;43.538;-5.708;2023-04-03T02:10:32;11.90;99.90
60234;DHT22;49514;43.538;-5.708;2023-04-03T02:12:58;11.90;99.90
60234;DHT22;49514;43.538;-5.708;2023-04-03T02:15:25;11.90;99.90
60234;DHT22;49514;43.538;-5.708;2023-04-03T02:17:52;11.80;99.90
60234;DHT22;49514;43.538;-5.708;2023-04-03T02:20:18;11.70;99.90
60234;DHT22;49514;43.538;-5.708;2023-04-03T02:22:45;11.60;99.90
60234;DHT22;49514;43.538;-5.708;2023-04-03T02:25:12;11.50;99.90
60234;DHT22;49514;43.538;-5.708;2023-04-03T02:27:40;11.50;99.90
60234;DHT22;49514;43.538;-5.708;2023-04-03T02:30:06;11.40;99.90
60234;DHT22;49514;43.538;-5.708;2023-04-03T02:32:32;11.30;99.90
60234;DHT22;49514;43.538;-5.708;2023-04-03T02:34:59;11.20;99.90
60234;DHT22;49514;43.538;-5.708;2023-04-03T02:37:26;11.10;99.90
60234;DHT22;49514;43.538;-5.708;2023-04-03T02:39:53;11.00;99.90
60234;DHT22;49514;43.538;-5.708;2023-04-03T02:42:20;10.90;99.90
60234;DHT22;49514;43.538;-5.708;2023-04-03T02:44:46;10.80;99.90
60234;DHT22;49514;43.538;-5.708;2023-04-03T02:47:13;10.70;99.90
60234;DHT22;49514;43.538;-5.708;2023-04-03T02:49:39;10.60;99.90
60234;DHT22;49514;43.538;-5.708;2023-04-03T02:52:05;10.60;99.90
60234;DHT22;49514;43.538;-5.708;2023-04-03T02:54:32;10.50;99.90
60234;DHT22;49514;43.538;-5.708;2023-04-03T02:57:03;10.40;99.90
60234;DHT22;49514;43.538;-5.708;2023-04-03T02:59:29;10.30;99.90
60234;DHT22;49514;43.538;-5.708;2023-04-03T03:01:56;10.30;99.90
60234;DHT22;49514;43.538;-5.708;2023-04-03T03:04:22;10.20;99.90
60234;DHT22;49514;43.538;-5.708;2023-04-03T03:06:49;10.10;99.90
60234;DHT22;49514;43.538;-5.708;2023-04-03T03:09:15;10.00;99.90
60234;DHT22;49514;43.538;-5.708;2023-04-03T03:11:42;10.00;99.90
60234;DHT22;49514;43.538;-5.708;2023-04-03T03:14:08;9.90;99.90
60234;DHT22;49514;43.538;-5.708;2023-04-03T03:16:35;9.90;99.90
60234;DHT22;49514;43.538;-5.708;2023-04-03T03:19:01;9.90;99.90
60234;DHT22;49514;43.538;-5.708;2023-04-03T03:21:28;9.80;99.90
60234;DHT22;49514;43.538;-5.708;2023-04-03T03:23:54;9.80;99.90
60234;DHT22;49514;43.538;-5.708;2023-04-03T03:26:20;9.80;99.90
60234;DHT22;49514;43.538;-5.708;2023-04-03T03:28:47;9.70;99.90
60234;DHT22;49514;43.538;-5.708;2023-04-03T03:31:13;9.70;99.90
60234;DHT22;49514;43.538;-5.708;2023-04-03T03:33:41;9.60;99.90
60234;DHT22;49514;43.538;-5.708;2023-04-03T03:36:07;9.60;99.90
60234;DHT22;49514;43.538;-5.708;2023-04-03T03:38:36;9.60;99.90
60234;DHT22;49514;43.538;-5.708;2023-04-03T03:41:02;9.60;99.90
60234;DHT22;49514;43.538;-5.708;2023-04-03T03:43:31;9.60;99.90
60234;DHT22;49514;43.538;-5.708;2023-04-03T03:45:57;9.60;99.90
60234;DHT22;49514;43.538;-5.708;2023-04-03T03:48:25;9.60;99.90
60234;DHT22;49514;43.538;-5.708;2023-04-03T03:50:51;9.50;99.90
60234;DHT22;49514;43.538;-5.708;2023-04-03T03:53:21;9.50;99.90
60234;DHT22;49514;43.538;-5.708;2023-04-03T03:55:50;9.50;99.90
60234;DHT22;49514;43.538;-5.708;2023-04-03T03:58:17;9.40;99.90
60234;DHT22;49514;43.538;-5.708;2023-04-03T04:00:43;9.40;99.90
60234;DHT22;49514;43.538;-5.708;2023-04-03T04:03:11;9.40;99.90
60234;DHT22;49514;43.538;-5.708;2023-04-03T04:05:37;9.40;99.90
60234;DHT22;49514;43.538;-5.708;2023-04-03T04:08:04;9.30;99.90
60234;DHT22;49514;43.538;-5.708;2023-04-03T04:10:30;9.30;99.90
60234;DHT22;49514;43.538;-5.708;2023-04-03T04:12:58;9.30;99.90
60234;DHT22;49514;43.538;-5.708;2023-04-03T04:15:26;9.30;99.90
60234;DHT22;49514;43.538;-5.708;2023-04-03T04:17:54;9.20;99.90
60234;DHT22;49514;43.538;-5.708;2023-04-03T04:20:20;9.20;99.90
60234;DHT22;49514;43.538;-5.708;2023-04-03T04:22:47;9.20;99.90
60234;DHT22;49514;43.538;-5.708;2023-04-03T04:25:15;9.20;99.90
60234;DHT22;49514;43.538;-5.708;2023-04-03T04:27:41;9.10;99.90
60234;DHT22;49514;43.538;-5.708;2023-04-03T04:30:09;9.00;99.90
60234;DHT22;49514;43.538;-5.708;2023-04-03T04:32:36;9.00;99.90
60234;DHT22;49514;43.538;-5.708;2023-04-03T04:35:03;9.00;99.90
60234;DHT22;49514;43.538;-5.708;2023-04-03T04:37:32;9.00;99.90
60234;DHT22;49514;43.538;-5.708;2023-04-03T04:39:59;9.00;99.90
60234;DHT22;49514;43.538;-5.708;2023-04-03T04:42:25;8.90;99.90
60234;DHT22;49514;43.538;-5.708;2023-04-03T04:44:52;8.90;99.90
60234;DHT22;49514;43.538;-5.708;2023-04-03T04:47:18;8.90;99.90
60234;DHT22;49514;43.538;-5.708;2023-04-03T04:49:45;8.80;99.90
60234;DHT22;49514;43.538;-5.708;2023-04-03T04:52:14;8.80;99.90
60234;DHT22;49514;43.538;-5.708;2023-04-03T04:54:41;8.80;99.90
60234;DHT22;49514;43.538;-5.708;2023-04-03T04:57:07;8.80;99.90
60234;DHT22;49514;43.538;-5.708;2023-04-03T04:59:34;8.70;99.90
60234;DHT22;49514;43.538;-5.708;2023-04-03T05:02:01;8.60;99.90
60234;DHT22;49514;43.538;-5.708;2023-04-03T05:04:27;8.60;99.90
60234;DHT22;49514;43.538;-5.708;2023-04-03T05:07:00;8.50;99.90
60234;DHT22;49514;43.538;-5.708;2023-04-03T05:09:30;8.50;99.90
60234;DHT22;49514;43.538;-5.708;2023-04-03T05:11:56;8.50;99.90
60234;DHT22;49514;43.538;-5.708;2023-04-03T05:14:26;8.50;99.90
60234;DHT22;49514;43.538;-5.708;2023-04-03T05:16:54;8.50;99.90
60234;DHT22;49514;43.538;-5.708;2023-04-03T05:19:23;8.50;99.90
60234;DHT22;49514;43.538;-5.708;2023-04-03T05:21:51;8.50;99.90
60234;DHT22;49514;43.538;-5.708;2023-04-03T05:24:18;8.50;99.90
60234;DHT22;49514;43.538;-5.708;2023-04-03T05:26:45;8.40;99.90
60234;DHT22;49514;43.538;-5.708;2023-04-03T05:29:13;8.40;99.90
60234;DHT22;49514;43.538;-5.708;2023-04-03T05:31:40;8.40;99.90
60234;DHT22;49514;43.538;-5.708;2023-04-03T05:34:08;8.40;99.90
60234;DHT22;49514;43.538;-5.708;2023-04-03T05:36:37;8.30;99.90
60234;DHT22;49514;43.538;-5.708;2023-04-03T05:39:06;8.30;99.90
60234;DHT22;49514;43.538;-5.708;2023-04-03T05:41:35;8.30;99.90
60234;DHT22;49514;43.538;-5.708;2023-04-03T05:44:02;8.30;99.90
60234;DHT22;49514;43.538;-5.708;2023-04-03T05:46:29;8.30;99.90
60234;DHT22;49514;43.538;-5.708;2023-04-03T05:48:58;8.20;99.90
60234;DHT22;49514;43.538;-5.708;2023-04-03T05:51:36;8.20;99.90
60234;DHT22;49514;43.538;-5.708;2023-04-03T05:54:28;8.20;99.90
60234;DHT22;49514;43.538;-5.708;2023-04-03T05:57:17;8.10;99.90
60234;DHT22;49514;43.538;-5.708;2023-04-03T05:59:45;8.10;99.90
60234;DHT22;49514;43.538;-5.708;2023-04-03T06:02:16;8.10;99.90
60234;DHT22;49514;43.538;-5.708;2023-04-03T06:04:43;8.10;99.90
60234;DHT22;49514;43.538;-5.708;2023-04-03T06:07:13;8.10;99.90
60234;DHT22;49514;43.538;-5.708;2023-04-03T06:09:40;8.00;99.90
60234;DHT22;49514;43.538;-5.708;2023-04-03T06:12:07;8.00;99.90
60234;DHT22;49514;43.538;-5.708;2023-04-03T06:14:34;7.90;99.90
60234;DHT22;49514;43.538;-5.708;2023-04-03T06:17:02;7.90;99.90
60234;DHT22;49514;43.538;-5.708;2023-04-03T06:19:28;7.90;99.90
60234;DHT22;49514;43.538;-5.708;2023-04-03T06:21:57;8.00;99.90
60234;DHT22;49514;43.538;-5.708;2023-04-03T06:24:24;8.00;99.90
60234;DHT22;49514;43.538;-5.708;2023-04-03T06:26:52;8.00;99.90
60234;DHT22;49514;43.538;-5.708;2023-04-03T06:29:19;8.00;99.90
60234;DHT22;49514;43.538;-5.708;2023-04-03T06:31:46;8.00;99.90
60234;DHT22;49514;43.538;-5.708;2023-04-03T06:34:13;8.00;99.90
60234;DHT22;49514;43.538;-5.708;2023-04-03T06:36:42;8.10;99.90
60234;DHT22;49514;43.538;-5.708;2023-04-03T06:39:17;8.10;99.90
60234;DHT22;49514;43.538;-5.708;2023-04-03T06:41:44;8.20;99.90
60234;DHT22;49514;43.538;-5.708;2023-04-03T06:44:11;8.20;99.90
60234;DHT22;49514;43.538;-5.708;2023-04-03T06:46:39;8.20;99.90
60234;DHT22;49514;43.538;-5.708;2023-04-03T06:49:06;8.20;99.90
60234;DHT22;49514;43.538;-5.708;2023-04-03T06:51:36;8.20;99.90
60234;DHT22;49514;43.538;-5.708;2023-04-03T06:54:05;8.30;99.90
60234;DHT22;49514;43.538;-5.708;2023-04-03T06:56:32;8.30;99.90
60234;DHT22;49514;43.538;-5.708;2023-04-03T06:58:59;8.30;99.90
60234;DHT22;49514;43.538;-5.708;2023-04-03T07:01:28;8.40;99.90
60234;DHT22;49514;43.538;-5.708;2023-04-03T07:03:56;8.40;99.90
60234;DHT22;49514;43.538;-5.708;2023-04-03T07:06:23;8.50;99.90
60234;DHT22;49514;43.538;-5.708;2023-04-03T07:08:53;8.50;99.90
60234;DHT22;49514;43.538;-5.708;2023-04-03T07:11:20;8.50;99.90
60234;DHT22;49514;43.538;-5.708;2023-04-03T07:13:47;8.60;99.90
60234;DHT22;49514;43.538;-5.708;2023-04-03T07:16:14;8.60;99.90
60234;DHT22;49514;43.538;-5.708;2023-04-03T07:18:41;8.70;99.90
60234;DHT22;49514;43.538;-5.708;2023-04-03T07:21:08;8.70;99.90
60234;DHT22;49514;43.538;-5.708;2023-04-03T07:23:34;8.80;99.90
60234;DHT22;49514;43.538;-5.708;2023-04-03T07:26:01;8.90;99.90
60234;DHT22;49514;43.538;-5.708;2023-04-03T07:28:28;8.90;99.90
60234;DHT22;49514;43.538;-5.708;2023-04-03T07:31:00;9.00;99.90
60234;DHT22;49514;43.538;-5.708;2023-04-03T07:33:27;9.20;99.90
60234;DHT22;49514;43.538;-5.708;2023-04-03T07:35:54;9.30;99.90
60234;DHT22;49514;43.538;-5.708;2023-04-03T07:38:21;9.40;99.90
60234;DHT22;49514;43.538;-5.708;2023-04-03T07:40:49;9.50;99.90
60234;DHT22;49514;43.538;-5.708;2023-04-03T07:43:16;9.50;99.90
60234;DHT22;49514;43.538;-5.708;2023-04-03T07:45:43;9.50;99.90
60234;DHT22;49514;43.538;-5.708;2023-04-03T07:48:11;9.60;99.90
60234;DHT22;49514;43.538;-5.708;2023-04-03T07:50:40;9.70;99.90
60234;DHT22;49514;43.538;-5.708;2023-04-03T07:53:07;9.70;99.90
60234;DHT22;49514;43.538;-5.708;2023-04-03T07:55:34;9.80;99.90
60234;DHT22;49514;43.538;-5.708;2023-04-03T07:58:03;9.70;99.90
60234;DHT22;49514;43.538;-5.708;2023-04-03T08:00:30;9.80;99.90
60234;DHT22;49514;43.538;-5.708;2023-04-03T08:02:57;9.90;99.90
60234;DHT22;49514;43.538;-5.708;2023-04-03T08:05:24;9.90;99.90
60234;DHT22;49514;43.538;-5.708;2023-04-03T08:07:50;9.90;99.90
60234;DHT22;49514;43.538;-5.708;2023-04-03T08:10:17;10.00;99.90
60234;DHT22;49514;43.538;-5.708;2023-04-03T08:12:46;10.10;99.90
60234;DHT22;49514;43.538;-5.708;2023-04-03T08:15:13;10.10;99.90
60234;DHT22;49514;43.538;-5.708;2023-04-03T08:17:40;10.20;99.90
60234;DHT22;49514;43.538;-5.708;2023-04-03T08:20:09;10.30;99.90
60234;DHT22;49514;43.538;-5.708;2023-04-03T08:22:36;10.40;99.90
60234;DHT22;49514;43.538;-5.708;2023-04-03T08:25:02;10.40;99.90
60234;DHT22;49514;43.538;-5.708;2023-04-03T08:27:29;10.50;99.90
60234;DHT22;49514;43.538;-5.708;2023-04-03T08:29:56;10.60;99.90
60234;DHT22;49514;43.538;-5.708;2023-04-03T08:32:24;10.70;99.90
60234;DHT22;49514;43.538;-5.708;2023-04-03T08:34:51;10.70;99.90
60234;DHT22;49514;43.538;-5.708;2023-04-03T08:37:17;10.80;99.90
60234;DHT22;49514;43.538;-5.708;2023-04-03T08:39:45;10.90;99.90
60234;DHT22;49514;43.538;-5.708;2023-04-03T08:48:29;11.20;99.90
60234;DHT22;49514;43.538;-5.708;2023-04-03T08:51:00;11.30;99.90
60234;DHT22;49514;43.538;-5.708;2023-04-03T08:53:34;11.50;99.90
60234;DHT22;49514;43.538;-5.708;2023-04-03T08:56:08;11.60;99.90
60234;DHT22;49514;43.538;-5.708;2023-04-03T08:58:44;11.70;99.90
60234;DHT22;49514;43.538;-5.708;2023-04-03T09:03:45;11.90;99.90
60234;DHT22;49514;43.538;-5.708;2023-04-03T09:06:17;12.00;99.90
60234;DHT22;49514;43.538;-5.708;2023-04-03T09:17:20;12.30;99.90
60234;DHT22;49514;43.538;-5.708;2023-04-03T09:20:09;12.40;99.90
60234;DHT22;49514;43.538;-5.708;2023-04-03T09:22:41;12.50;99.90
60234;DHT22;49514;43.538;-5.708;2023-04-03T09:27:42;12.70;99.90
60234;DHT22;49514;43.538;-5.708;2023-04-03T09:30:23;12.70;99.90
60234;DHT22;49514;43.538;-5.708;2023-04-03T09:32:52;12.80;99.90
60234;DHT22;49514;43.538;-5.708;2023-04-03T09:35:23;12.90;99.90
60234;DHT22;49514;43.538;-5.708;2023-04-03T09:37:53;12.90;99.90
60234;DHT22;49514;43.538;-5.708;2023-04-03T09:42:54;13.00;99.90
60234;DHT22;49514;43.538;-5.708;2023-04-03T09:45:31;13.10;99.90
60234;DHT22;49514;43.538;-5.708;2023-04-03T09:48:25;13.00;99.90
60234;DHT22;49514;43.538;-5.708;2023-04-03T09:51:02;13.10;99.90
60234;DHT22;49514;43.538;-5.708;2023-04-03T09:53:30;13.10;99.90
60234;DHT22;49514;43.538;-5.708;2023-04-03T09:55:58;13.20;99.90
60234;DHT22;49514;43.538;-5.708;2023-04-03T09:58:38;13.20;99.90
60234;DHT22;49514;43.538;-5.708;2023-04-03T10:04:20;13.30;99.90
60234;DHT22;49514;43.538;-5.708;2023-04-03T10:06:54;13.30;99.90
60234;DHT22;49514;43.538;-5.708;2023-04-03T10:09:31;13.30;99.90
60234;DHT22;49514;43.538;-5.708;2023-04-03T10:12:10;13.30;99.90
60234;DHT22;49514;43.538;-5.708;2023-04-03T10:14:40;13.30;99.90
60234;DHT22;49514;43.538;-5.708;2023-04-03T10:17:50;13.30;99.90
60234;DHT22;49514;43.538;-5.708;2023-04-03T10:20:39;13.40;99.90
60234;DHT22;49514;43.538;-5.708;2023-04-03T10:33:36;13.60;99.90
60234;DHT22;49514;43.538;-5.708;2023-04-03T10:39:21;13.60;99.90
60234;DHT22;49514;43.538;-5.708;2023-04-03T10:50:14;13.80;99.90
60234;DHT22;49514;43.538;-5.708;2023-04-03T10:56:13;13.90;99.90
60234;DHT22;49514;43.538;-5.708;2023-04-03T10:58:43;13.90;99.90
60234;DHT22;49514;43.538;-5.708;2023-04-03T11:01:20;13.90;99.90
60234;DHT22;49514;43.538;-5.708;2023-04-03T11:03:59;13.90;99.90
60234;DHT22;49514;43.538;-5.708;2023-04-03T11:06:57;14.00;99.90
60234;DHT22;49514;43.538;-5.708;2023-04-03T11:09:32;14.00;99.90
60234;DHT22;49514;43.538;-5.708;2023-04-03T11:12:20;14.00;99.90
60234;DHT22;49514;43.538;-5.708;2023-04-03T11:14:50;14.10;99.90
60234;DHT22;49514;43.538;-5.708;2023-04-03T11:22:28;14.30;99.90
60234;DHT22;49514;43.538;-5.708;2023-04-03T11:27:37;14.30;99.90
60234;DHT22;49514;43.538;-5.708;2023-04-03T11:30:08;14.40;99.90
60234;DHT22;49514;43.538;-5.708;2023-04-03T11:33:03;14.50;99.90
60234;DHT22;49514;43.538;-5.708;2023-04-03T11:35:32;14.60;99.90
60234;DHT22;49514;43.538;-5.708;2023-04-03T11:38:03;14.70;99.90
60234;DHT22;49514;43.538;-5.708;2023-04-03T11:40:34;14.70;99.90
60234;DHT22;49514;43.538;-5.708;2023-04-03T11:43:22;14.90;99.90
60234;DHT22;49514;43.538;-5.708;2023-04-03T11:45:58;14.90;99.90
60234;DHT22;49514;43.538;-5.708;2023-04-03T11:51:37;15.10;99.90
60234;DHT22;49514;43.538;-5.708;2023-04-03T11:53:49;15.20;99.90
60234;DHT22;49514;43.538;-5.708;2023-04-03T12:01:55;15.50;99.90
60234;DHT22;49514;43.538;-5.708;2023-04-03T12:04:25;15.70;99.90
60234;DHT22;49514;43.538;-5.708;2023-04-03T12:07:02;15.60;99.90
60234;DHT22;49514;43.538;-5.708;2023-04-03T12:15:26;15.90;99.90
60234;DHT22;49514;43.538;-5.708;2023-04-03T12:21:21;16.10;99.90
60234;DHT22;49514;43.538;-5.708;2023-04-03T12:24:02;16.20;99.90
60234;DHT22;49514;43.538;-5.708;2023-04-03T12:35:36;16.80;99.90
60234;DHT22;49514;43.538;-5.708;2023-04-03T12:44:16;18.00;99.90
60234;DHT22;49514;43.538;-5.708;2023-04-03T12:46:52;18.80;99.90
60234;DHT22;49514;43.538;-5.708;2023-04-03T12:51:55;20.60;99.00
60234;DHT22;49514;43.538;-5.708;2023-04-03T12:54:36;21.50;99.90
60234;DHT22;49514;43.538;-5.708;2023-04-03T12:57:17;23.20;93.90
60234;DHT22;49514;43.538;-5.708;2023-04-03T12:59:45;25.10;90.20
60234;DHT22;49514;43.538;-5.708;2023-04-03T13:02:23;27.00;80.60
60234;DHT22;49514;43.538;-5.708;2023-04-03T13:05:06;27.30;78.30
60234;DHT22;49514;43.538;-5.708;2023-04-03T13:07:36;29.20;73.80
60234;DHT22;49514;43.538;-5.708;2023-04-03T13:12:56;31.10;68.80
60234;DHT22;49514;43.538;-5.708;2023-04-03T13:15:24;32.70;64.40
60234;DHT22;49514;43.538;-5.708;2023-04-03T13:17:53;33.50;61.80
60234;DHT22;49514;43.538;-5.708;2023-04-03T13:22:50;34.30;59.50
60234;DHT22;49514;43.538;-5.708;2023-04-03T13:25:20;35.00;60.00
60234;DHT22;49514;43.538;-5.708;2023-04-03T13:27:47;35.10;56.90
60234;DHT22;49514;43.538;-5.708;2023-04-03T13:30:27;34.90;56.50
60234;DHT22;49514;43.538;-5.708;2023-04-03T13:32:57;35.70;55.40
60234;DHT22;49514;43.538;-5.708;2023-04-03T13:37:59;36.90;53.10
60234;DHT22;49514;43.538;-5.708;2023-04-03T13:40:27;37.20;54.20
60234;DHT22;49514;43.538;-5.708;2023-04-03T13:43:18;37.10;53.30
60234;DHT22;49514;43.538;-5.708;2023-04-03T13:48:53;36.90;51.80
60234;DHT22;49514;43.538;-5.708;2023-04-03T13:51:26;37.10;51.50
60234;DHT22;49514;43.538;-5.708;2023-04-03T13:54:00;37.30;51.80
60234;DHT22;49514;43.538;-5.708;2023-04-03T14:02:12;36.30;51.60
60234;DHT22;49514;43.538;-5.708;2023-04-03T14:07:13;37.40;50.70
60234;DHT22;49514;43.538;-5.708;2023-04-03T14:09:41;37.80;51.50
60234;DHT22;49514;43.538;-5.708;2023-04-03T14:12:15;38.20;49.90
60234;DHT22;49514;43.538;-5.708;2023-04-03T14:14:44;38.20;50.40
60234;DHT22;49514;43.538;-5.708;2023-04-03T14:17:18;38.10;49.80
60234;DHT22;49514;43.538;-5.708;2023-04-03T14:19:47;37.60;50.00
60234;DHT22;49514;43.538;-5.708;2023-04-03T14:22:21;38.00;49.90
60234;DHT22;49514;43.538;-5.708;2023-04-03T14:24:51;37.50;49.20
60234;DHT22;49514;43.538;-5.708;2023-04-03T14:27:26;36.90;48.60
60234;DHT22;49514;43.538;-5.708;2023-04-03T14:29:54;36.90;49.60
60234;DHT22;49514;43.538;-5.708;2023-04-03T14:32:22;36.20;48.70
60234;DHT22;49514;43.538;-5.708;2023-04-03T14:34:49;35.80;49.80
60234;DHT22;49514;43.538;-5.708;2023-04-03T14:37:18;35.80;49.60
60234;DHT22;49514;43.538;-5.708;2023-04-03T14:39:44;36.40;49.60
60234;DHT22;49514;43.538;-5.708;2023-04-03T14:42:12;36.40;48.90
60234;DHT22;49514;43.538;-5.708;2023-04-03T14:44:39;36.20;49.50
60234;DHT22;49514;43.538;-5.708;2023-04-03T14:47:10;36.10;49.00
60234;DHT22;49514;43.538;-5.708;2023-04-03T14:49:37;35.60;49.70
60234;DHT22;49514;43.538;-5.708;2023-04-03T14:52:03;35.00;49.00
60234;DHT22;49514;43.538;-5.708;2023-04-03T14:54:29;34.70;49.20
60234;DHT22;49514;43.538;-5.708;2023-04-03T14:56:57;33.90;49.50
60234;DHT22;49514;43.538;-5.708;2023-04-03T14:59:24;33.60;50.00
60234;DHT22;49514;43.538;-5.708;2023-04-03T15:01:51;34.00;50.10
60234;DHT22;49514;43.538;-5.708;2023-04-03T15:04:19;33.70;50.00
60234;DHT22;49514;43.538;-5.708;2023-04-03T15:06:46;33.90;50.30
60234;DHT22;49514;43.538;-5.708;2023-04-03T15:09:26;34.00;50.10
60234;DHT22;49514;43.538;-5.708;2023-04-03T15:11:54;33.90;50.10
60234;DHT22;49514;43.538;-5.708;2023-04-03T15:14:21;33.80;50.30
60234;DHT22;49514;43.538;-5.708;2023-04-03T15:16:47;33.70;50.20
60234;DHT22;49514;43.538;-5.708;2023-04-03T15:19:14;34.40;49.70
60234;DHT22;49514;43.538;-5.708;2023-04-03T15:21:40;34.50;49.20
60234;DHT22;49514;43.538;-5.708;2023-04-03T15:24:08;34.20;49.90
60234;DHT22;49514;43.538;-5.708;2023-04-03T15:26:35;34.20;49.10
60234;DHT22;49514;43.538;-5.708;2023-04-03T15:29:01;33.80;50.50
60234;DHT22;49514;43.538;-5.708;2023-04-03T15:31:27;33.70;49.50
60234;DHT22;49514;43.538;-5.708;2023-04-03T15:33:54;33.20;49.80
60234;DHT22;49514;43.538;-5.708;2023-04-03T15:36:20;33.60;50.20
60234;DHT22;49514;43.538;-5.708;2023-04-03T15:38:47;33.30;49.90
60234;DHT22;49514;43.538;-5.708;2023-04-03T15:41:13;33.00;49.80
60234;DHT22;49514;43.538;-5.708;2023-04-03T15:43:40;33.10;49.90
60234;DHT22;49514;43.538;-5.708;2023-04-03T15:46:06;32.30;50.10
60234;DHT22;49514;43.538;-5.708;2023-04-03T15:48:32;31.90;50.60
60234;DHT22;49514;43.538;-5.708;2023-04-03T15:50:59;31.40;51.00
60234;DHT22;49514;43.538;-5.708;2023-04-03T15:53:26;31.30;51.40
60234;DHT22;49514;43.538;-5.708;2023-04-03T15:55:52;30.40;52.00
60234;DHT22;49514;43.538;-5.708;2023-04-03T15:58:19;30.40;52.20
60234;DHT22;49514;43.538;-5.708;2023-04-03T16:00:45;29.90;52.50
60234;DHT22;49514;43.538;-5.708;2023-04-03T16:03:16;29.30;52.80
60234;DHT22;49514;43.538;-5.708;2023-04-03T16:05:43;29.20;53.50
60234;DHT22;49514;43.538;-5.708;2023-04-03T16:08:10;28.80;54.00
60234;DHT22;49514;43.538;-5.708;2023-04-03T16:10:37;28.60;55.40
60234;DHT22;49514;43.538;-5.708;2023-04-03T16:13:05;28.40;55.00
60234;DHT22;49514;43.538;-5.708;2023-04-03T16:15:33;28.00;55.30
60234;DHT22;49514;43.538;-5.708;2023-04-03T16:18:01;27.90;55.60
60234;DHT22;49514;43.538;-5.708;2023-04-03T16:20:28;27.60;55.80
60234;DHT22;49514;43.538;-5.708;2023-04-03T16:22:55;27.40;56.10
60234;DHT22;49514;43.538;-5.708;2023-04-03T16:25:22;26.90;56.60
60234;DHT22;49514;43.538;-5.708;2023-04-03T16:27:49;26.90;56.90
60234;DHT22;49514;43.538;-5.708;2023-04-03T16:30:16;26.60;57.20
60234;DHT22;49514;43.538;-5.708;2023-04-03T16:32:42;26.40;57.60
60234;DHT22;49514;43.538;-5.708;2023-04-03T16:35:10;26.20;57.90
60234;DHT22;49514;43.538;-5.708;2023-04-03T16:37:38;25.80;58.50
60234;DHT22;49514;43.538;-5.708;2023-04-03T16:40:06;25.60;59.40
60234;DHT22;49514;43.538;-5.708;2023-04-03T16:42:33;25.50;59.80
60234;DHT22;49514;43.538;-5.708;2023-04-03T16:45:00;25.50;59.90
60234;DHT22;49514;43.538;-5.708;2023-04-03T16:47:30;25.20;60.90
60234;DHT22;49514;43.538;-5.708;2023-04-03T16:49:56;25.10;60.50
60234;DHT22;49514;43.538;-5.708;2023-04-03T16:52:23;25.00;60.70
60234;DHT22;49514;43.538;-5.708;2023-04-03T16:54:50;25.20;60.90
60234;DHT22;49514;43.538;-5.708;2023-04-03T16:57:22;25.20;61.10
60234;DHT22;49514;43.538;-5.708;2023-04-03T16:59:51;24.80;61.60
60234;DHT22;49514;43.538;-5.708;2023-04-03T17:02:19;24.60;62.10
60234;DHT22;49514;43.538;-5.708;2023-04-03T17:04:46;24.40;63.00
60234;DHT22;49514;43.538;-5.708;2023-04-03T17:07:13;24.10;63.70
60234;DHT22;49514;43.538;-5.708;2023-04-03T17:09:39;24.00;64.30
60234;DHT22;49514;43.538;-5.708;2023-04-03T17:12:06;23.90;64.50
60234;DHT22;49514;43.538;-5.708;2023-04-03T17:14:33;23.70;65.60
60234;DHT22;49514;43.538;-5.708;2023-04-03T17:16:59;23.40;65.80
60234;DHT22;49514;43.538;-5.708;2023-04-03T17:19:27;22.90;67.80
60234;DHT22;49514;43.538;-5.708;2023-04-03T17:21:54;22.70;68.60
60234;DHT22;49514;43.538;-5.708;2023-04-03T17:24:21;22.40;70.20
60234;DHT22;49514;43.538;-5.708;2023-04-03T17:26:48;22.20;69.70
60234;DHT22;49514;43.538;-5.708;2023-04-03T17:29:14;21.90;70.90
60234;DHT22;49514;43.538;-5.708;2023-04-03T17:31:41;21.70;71.70
60234;DHT22;49514;43.538;-5.708;2023-04-03T17:34:08;21.50;71.30